Latest Weather Observations for Onslow Airport

IDW60801

Issued at 11:23 am WST Monday 27 January 2020 (issued every 10 minutes, with the page automatically refreshed every 10 minutes)

About weather observations | Map of weather stations | Latest weather observations for WA | Other Formats
Station Details ID: 005017 Name: ONSLOW AIRPORT Lat: -21.67 Lon: 115.11 Height: 10.5 m
Data from the previous 72 hours. | See also: Recent months at Onslow Airport
Date/Time
WST
Temp
°C
App
Temp
°C
Dew
Point
°C
Rel
Hum
%
Delta-T
°C
Wind Press
QNH
hPa
Press
MSL
hPa
Rain since
9am
mm
Dir  Spd
km/h
Gust
km/h
Spd
kts
Gust
kts
27/11:00am 36.4 35.7 19.4 37 11.3 N 22 35 12 19 1009.0 1008.9 0.0
27/10:30am 37.0 36.4 17.6 32 12.6 NNE 17 28 9 15 1009.1 1009.0 0.0
27/10:00am 38.5 38.4 15.0 25 14.8 SSE 9 15 5 8 1009.3 1009.2 0.0
27/09:30am 36.2 36.1 15.9 30 12.9 S 11 15 6 8 1009.1 1009.0 0.0
27/09:00am 34.3 34.6 17.1 36 11.0 SSE 11 15 6 8 1009.1 1009.0 0.0
27/08:30am 33.0 33.2 17.6 40 9.9 S 13 17 7 9 1009.0 1008.9 0.0
27/08:00am 31.4 33.1 19.4 49 7.9 S 9 11 5 6 1008.9 1008.8 0.0
27/07:30am 30.1 32.5 20.9 57 6.1 SSW 9 11 5 6 1008.7 1008.6 0.0
27/07:00am 28.4 31.6 21.7 67 4.5 WSW 7 9 4 5 1008.5 1008.4 0.0
27/06:30am 26.5 28.6 21.0 72 3.6 WSW 11 11 6 6 1008.2 1008.1 0.0
27/06:00am 25.7 27.9 20.5 73 3.4 W 9 11 5 6 1007.7 1007.6 0.0
27/05:30am 25.7 28.3 20.5 73 3.4 W 7 7 4 4 1007.5 1007.4 0.0
27/05:00am 26.2 28.8 20.5 71 3.7 WNW 7 9 4 5 1007.3 1007.2 0.0
27/04:30am 26.2 30.2 20.5 71 3.7 CALM 0 0 0 0 1007.2 1007.1 0.0
27/04:00am 25.7 27.9 20.3 72 3.5 NNW 9 11 5 6 1007.1 1007.0 0.0
27/03:30am 26.8 29.0 21.1 71 3.8 WSW 11 13 6 7 1006.9 1006.8 0.0
27/03:00am 26.5 27.9 21.0 72 3.6 WSW 15 20 8 11 1007.0 1006.9 0.0
27/02:30am 26.1 29.8 20.0 69 4.0 CALM 0 0 0 0 1006.9 1006.8 0.0
27/02:00am 27.1 31.3 20.9 69 4.1 CALM 0 0 0 0 1007.2 1007.1 0.0
27/01:30am 26.9 31.1 21.0 70 3.9 CALM 0 0 0 0 1007.5 1007.4 0.0
27/01:00am 26.6 30.1 20.4 69 4.1 WSW 2 7 1 4 1007.8 1007.7 0.0
27/12:30am 27.0 29.5 20.3 66 4.4 W 7 9 4 5 1007.9 1007.8 0.0
27/12:00am 27.5 31.1 20.6 66 4.6 WSW 2 7 1 4 1008.3 1008.2 0.0
 
Date/Time
WST
Temp
°C
App
Temp
°C
Dew
Point
°C
Rel
Hum
%
Delta-T
°C
Wind Press
QNH
hPa
Press
MSL
hPa
Rain since
9am
mm
Dir  Spd
km/h
Gust
km/h
Spd
kts
Gust
kts
26/11:30pm 27.5 31.5 20.6 66 4.5 CALM 0 0 0 0 1008.6 1008.5 0.0
26/11:00pm 28.0 30.7 20.6 64 4.9 WSW 7 11 4 6 1008.6 1008.5 0.0
26/10:30pm 28.6 30.2 21.4 65 4.8 WSW 15 20 8 11 1008.5 1008.4 0.0
26/10:00pm 29.0 30.1 21.2 62 5.2 W 17 20 9 11 1008.5 1008.4 0.0
26/09:30pm 29.0 30.5 21.2 62 5.2 W 15 20 8 11 1008.2 1008.1 0.0
26/09:00pm 29.2 29.8 21.4 63 5.2 W 20 28 11 15 1008.0 1007.9 0.0
26/08:30pm 29.3 29.9 21.3 62 5.3 W 20 28 11 15 1007.9 1007.8 0.0
26/08:00pm 29.4 29.4 21.6 63 5.2 WNW 24 30 13 16 1007.6 1007.5 0.0
26/07:30pm 29.6 29.7 21.8 63 5.3 WNW 24 32 13 17 1007.4 1007.3 0.0
26/07:00pm 30.2 28.5 19.9 54 6.8 WNW 28 35 15 19 1007.1 1007.0 0.0
26/06:30pm 30.6 28.9 20.5 54 6.7 WNW 30 35 16 19 1007.0 1006.9 0.0
26/06:00pm 30.9 29.1 21.1 56 6.6 WNW 32 41 17 22 1006.7 1006.6 0.0
26/05:30pm 31.2 30.0 22.2 58 6.1 WNW 32 39 17 21 1006.6 1006.5 0.0
26/05:00pm 31.1 30.2 22.1 58 6.1 WNW 30 37 16 20 1006.7 1006.6 0.0
26/04:30pm 32.0 31.5 22.1 55 6.7 NW 28 37 15 20 1006.7 1006.6 0.0
26/04:00pm 32.3 31.6 21.8 54 7.1 NW 28 32 15 17 1006.9 1006.8 0.0
26/03:30pm 32.4 32.7 22.2 55 7.0 NW 24 32 13 17 1007.0 1006.9 0.0
26/03:00pm 33.5 34.5 22.9 53 7.3 NW 22 28 12 15 1007.2 1007.1 0.0
26/02:30pm 33.5 34.4 22.6 53 7.5 NW 22 30 12 16 1007.2 1007.1 0.0
26/02:00pm 33.8 35.2 22.9 53 7.5 NNW 20 28 11 15 1007.3 1007.2 0.0
26/01:30pm 34.2 34.6 20.9 45 9.0 NNW 20 26 11 14 1007.3 1007.2 0.0
26/01:00pm 34.8 35.5 21.5 46 9.1 NNW 20 24 11 13 1007.5 1007.4 0.0
26/12:30pm 33.8 35.2 22.6 52 7.7 N 19 24 10 13 1007.8 1007.7 0.0
26/12:00pm 33.8 35.2 22.6 52 7.7 N 19 30 10 16 1008.1 1008.0 0.0
26/11:30am 33.9 35.2 22.7 52 7.7 N 20 28 11 15 1008.5 1008.4 0.0
26/11:00am 33.0 34.5 22.7 54 7.1 NNE 19 28 10 15 1008.6 1008.5 0.0
26/10:30am 33.4 35.3 22.8 53 7.3 NNE 17 26 9 14 1008.6 1008.5 0.0
26/10:00am 32.9 35.7 23.0 56 6.8 NNE 13 20 7 11 1008.7 1008.6 0.0
26/09:30am 32.1 35.0 23.1 59 6.2 NNE 13 19 7 10 1008.8 1008.7 0.0
26/09:00am 32.4 35.5 22.8 57 6.6 NNE 11 17 6 9 1008.7 1008.6 0.0
26/08:30am 30.1 33.9 23.5 67 4.6 NNW 9 15 5 8 1008.7 1008.6 0.0
26/08:00am 29.9 33.7 24.1 71 4.0 NNW 11 15 6 8 1008.5 1008.4 0.0
26/07:30am 29.3 32.8 24.2 74 3.5 NNW 13 15 7 8 1008.5 1008.4 0.0
26/07:00am 28.4 33.1 25.0 82 2.4 NW 9 13 5 7 1008.2 1008.1 0.0
26/06:30am 26.6 30.7 23.9 85 1.9 NNW 9 11 5 6 1007.9 1007.8 0.0
26/06:00am 26.0 29.6 23.1 84 2.0 NW 9 11 5 6 1007.6 1007.5 0.0
26/05:30am 26.2 29.4 23.1 83 2.1 WNW 11 11 6 6 1007.4 1007.3 0.0
26/05:00am 26.6 30.0 23.3 82 2.3 WNW 11 15 6 8 1007.1 1007.0 0.0
26/04:30am 26.7 29.6 23.2 81 2.4 WNW 13 15 7 8 1007.2 1007.1 0.0
26/04:00am 26.9 29.7 23.6 82 2.3 WNW 15 20 8 11 1006.9 1006.8 0.0
26/03:30am 26.9 29.9 24.0 84 2.0 WNW 15 19 8 10 1006.9 1006.8 0.0
26/03:00am 27.1 30.1 24.6 86 1.7 NW 17 20 9 11 1007.0 1006.9 0.0
26/02:30am 27.2 29.7 24.7 86 1.7 WNW 20 28 11 15 1007.0 1006.9 0.0
26/02:00am 27.4 29.9 24.7 85 1.9 WNW 20 24 11 13 1007.2 1007.1 0.0
26/01:30am 27.4 29.9 24.7 85 1.9 WNW 20 26 11 14 1007.4 1007.3 0.0
26/01:00am 27.4 29.9 24.7 85 1.9 NW 20 26 11 14 1007.3 1007.2 0.0
26/12:30am 27.2 29.5 24.5 85 1.9 WNW 20 26 11 14 1007.6 1007.5 0.0
26/12:00am 27.1 30.2 24.2 84 2.0 NW 15 20 8 11 1008.1 1008.0 0.0
 
Date/Time
WST
Temp
°C
App
Temp
°C
Dew
Point
°C
Rel
Hum
%
Delta-T
°C
Wind Press
QNH
hPa
Press
MSL
hPa
Rain since
9am
mm
Dir  Spd
km/h
Gust
km/h
Spd
kts
Gust
kts
25/11:30pm 27.1 30.0 23.8 82 2.3 NW 15 19 8 10 1008.3 1008.2 0.0
25/11:00pm 27.0 29.7 23.5 81 2.4 NW 15 17 8 9 1008.6 1008.5 0.0
25/10:30pm 26.8 30.3 22.8 79 2.7 W 9 13 5 7 1009.2 1009.1 0.0
25/10:00pm 27.5 31.5 23.7 80 2.6 WSW 9 13 5 7 1010.0 1009.9 0.0
25/09:30pm 27.5 30.1 23.9 81 2.5 NNW 17 19 9 10 1009.3 1009.2 0.0
25/09:00pm 27.6 29.7 23.8 80 2.6 NNW 19 22 10 12 1009.3 1009.2 0.0
25/08:30pm 27.9 30.5 23.9 79 2.8 N 17 20 9 11 1008.9 1008.8 0.0
25/08:00pm 27.9 29.4 23.7 78 2.9 NW 22 28 12 15 1008.1 1008.0 0.0
25/07:30pm 28.1 29.5 23.5 76 3.2 NW 22 30 12 16 1008.1 1008.0 0.0
25/07:00pm 28.6 30.1 23.1 72 3.8 NW 20 26 11 14 1008.2 1008.1 0.0
25/06:30pm 29.3 30.6 23.3 70 4.1 WNW 22 28 12 15 1007.5 1007.4 0.0
25/06:00pm 30.0 30.6 23.4 67 4.6 WNW 26 32 14 17 1006.8 1006.7 0.0
25/05:30pm 30.1 29.8 22.5 63 5.2 NW 28 32 15 17 1006.6 1006.5 0.0
25/05:00pm 31.3 31.2 22.9 61 5.8 NW 28 33 15 18 1006.5 1006.4 0.0
25/04:30pm 31.2 30.9 23.3 63 5.4 NW 30 35 16 19 1006.6 1006.5 0.0
25/04:00pm 32.0 32.3 23.0 59 6.2 NW 26 32 14 17 1007.1 1007.0 0.0
25/03:30pm 33.2 33.6 23.2 55 6.9 NNW 26 32 14 17 1007.3 1007.2 0.0
25/03:00pm 32.3 32.5 22.7 57 6.6 NNW 26 30 14 16 1007.5 1007.4 0.0
25/02:30pm 32.3 32.6 23.0 58 6.4 NW 26 32 14 17 1007.7 1007.6 0.0
25/02:00pm 32.6 33.6 24.1 61 5.9 NNW 26 32 14 17 1008.0 1007.9 0.0
25/01:30pm 32.0 33.7 24.6 65 5.2 NW 24 32 13 17 1008.2 1008.1 0.0
25/01:00pm 32.4 34.7 24.4 62 5.6 NNW 20 30 11 16 1008.6 1008.5 0.0
25/12:30pm 32.5 34.8 24.5 62 5.6 NW 20 26 11 14 1008.9 1008.8 0.0
25/12:00pm 32.3 34.5 24.3 62 5.6 NNW 20 26 11 14 1009.1 1009.0 0.0
25/11:30am 31.6 33.6 24.0 64 5.3 NNW 20 28 11 15 1009.4 1009.3 0.0
25/11:00am 32.0 34.4 24.6 65 5.2 NNW 20 28 11 15 1009.8 1009.7 0.0
25/10:30am 31.9 34.4 24.7 65 5.1 N 20 28 11 15 1009.9 1009.8 0.0
25/10:00am 31.0 33.3 24.4 68 4.6 N 20 28 11 15 1010.0 1009.9 0.0
25/09:30am 30.6 32.8 24.3 69 4.4 N 20 26 11 14 1010.1 1010.0 0.0
25/09:21am 31.2 34.1 25.1 70 4.3 N 19 26 10 14 1010.0 1009.9 0.0
25/09:01am 30.4 33.1 25.0 73 3.8 NNE 20 26 11 14 1010.0 1009.9 0.0
25/09:00am 30.4 33.1 25.0 73 3.8 NNE 20 26 11 14 1010.0 1009.9 -
25/08:30am 30.3 33.8 24.9 73 3.8 N 15 19 8 10 1009.7 1009.6 -
25/08:00am 29.8 34.3 25.8 79 2.8 N 13 17 7 9 1009.4 1009.3 -
25/07:30am 28.5 33.1 25.9 86 1.8 N 13 15 7 8 1009.1 1009.0 -
25/07:00am 27.6 33.0 26.0 91 1.1 NNW 9 11 5 6 1009.0 1008.9 -
25/06:30am 26.7 32.2 25.3 92 1.0 NNW 6 7 3 4 1008.7 1008.6 -
25/06:00am 26.4 30.6 24.8 91 1.1 N 11 13 6 7 1008.1 1008.0 -
25/05:30am 26.5 30.8 24.9 91 1.1 NNW 11 13 6 7 1007.8 1007.7 -
25/05:00am 26.5 30.7 24.7 90 1.3 NW 11 13 6 7 1007.7 1007.6 -
25/04:30am 26.7 30.6 24.9 90 1.3 NW 13 15 7 8 1007.7 1007.6 -
25/04:00am 26.7 30.5 24.7 89 1.4 NW 13 17 7 9 1007.8 1007.7 -
25/03:30am 26.8 30.3 24.8 89 1.4 NW 15 20 8 11 1007.9 1007.8 -
25/03:00am 26.9 29.9 24.7 88 1.5 NNW 17 20 9 11 1008.0 1007.9 -
25/02:30am 27.0 30.4 24.6 87 1.7 NNW 15 19 8 10 1008.0 1007.9 -
25/02:00am 27.1 30.8 24.6 86 1.7 NNW 13 17 7 9 1008.3 1008.2 -
25/01:30am 27.0 30.7 24.5 86 1.7 N 13 15 7 8 1008.4 1008.3 -
25/01:00am 27.2 30.9 24.5 85 1.9 NW 13 15 7 8 1008.4 1008.3 -
25/12:30am 27.0 30.2 23.7 82 2.3 WNW 13 15 7 8 1008.7 1008.6 -
25/12:00am 26.5 30.0 22.8 80 2.5 WNW 9 11 5 6 1009.1 1009.0 -
 
Date/Time
WST
Temp
°C
App
Temp
°C
Dew
Point
°C
Rel
Hum
%
Delta-T
°C
Wind Press
QNH
hPa
Press
MSL
hPa
Rain since
9am
mm
Dir  Spd
km/h
Gust
km/h
Spd
kts
Gust
kts
24/11:30pm 26.7 30.4 23.2 81 2.4 W 9 13 5 7 1009.4 1009.3 -
24/11:00pm 26.9 31.1 23.4 81 2.4 W 7 11 4 6 1009.7 1009.6 -
24/10:30pm 27.3 31.3 23.7 81 2.5 WSW 9 11 5 6 1009.8 1009.7 -
24/10:00pm 27.4 31.8 23.8 81 2.5 WSW 7 11 4 6 1009.8 1009.7 -
24/09:30pm 27.7 31.1 24.1 81 2.5 WSW 13 15 7 8 1009.6 1009.5 -
24/09:00pm 27.7 31.5 24.1 81 2.5 WSW 11 15 6 8 1009.6 1009.5 0.0
24/08:30pm 27.8 30.2 24.2 81 2.5 W 19 24 10 13 1009.2 1009.1 0.0
24/08:00pm 28.1 30.9 24.3 80 2.6 WNW 17 22 9 12 1009.4 1009.3 0.0
24/07:30pm 28.3 30.7 24.3 79 2.8 WNW 19 28 10 15 1008.5 1008.4 0.0
24/07:00pm 28.5 30.3 23.6 75 3.4 WNW 20 26 11 14 1008.2 1008.1 0.0
24/06:30pm 29.2 31.0 23.6 72 3.9 WNW 20 26 11 14 1008.2 1008.1 0.0
24/06:00pm 29.2 30.8 23.2 70 4.1 WNW 20 24 11 13 1008.1 1008.0 0.0
24/05:30pm 29.9 30.0 23.3 67 4.5 NW 28 33 15 18 1007.5 1007.4 0.0
24/05:00pm 31.1 31.3 23.5 64 5.3 NW 28 35 15 19 1007.5 1007.4 0.0
24/04:30pm 30.9 30.8 23.5 64 5.1 NW 30 37 16 20 1007.5 1007.4 0.0
24/04:00pm 30.7 29.8 23.1 64 5.2 NW 33 39 18 21 1007.2 1007.1 0.0
24/03:30pm 30.9 29.4 22.8 62 5.5 NW 35 43 19 23 1007.1 1007.0 0.0
24/03:00pm 31.9 31.2 23.2 60 6.0 NW 32 39 17 21 1007.4 1007.3 0.0
24/02:30pm 32.5 32.9 23.7 59 6.1 NW 28 32 15 17 1007.9 1007.8 0.0
24/02:00pm 33.5 33.6 22.6 53 7.5 NNW 26 35 14 19 1008.1 1008.0 0.0
24/01:30pm 33.4 32.8 21.2 48 8.2 NNW 26 32 14 17 1008.4 1008.3 0.0
24/01:00pm 34.1 34.4 22.2 50 8.2 N 24 30 13 16 1008.6 1008.5 0.0
24/12:30pm 34.0 35.0 22.1 50 8.1 N 20 28 11 15 1008.8 1008.7 0.0
24/12:00pm 33.0 33.7 21.5 50 7.8 N 20 26 11 14 1009.1 1009.0 0.0
24/11:30am 33.9 35.2 22.7 52 7.7 N 20 28 11 15 1009.3 1009.2 0.0

Other formats

Comma delimited format used in spreadsheet applications
http://www.bom.gov.au/fwo/IDW60801/IDW60801.95305.axf

JavaScript Object Notation format (JSON) in row-major order
http://www.bom.gov.au/fwo/IDW60801/IDW60801.95305.json

Data quality

Most of these data are generated automatically and are frequently updated. Quality checks on data are not normally performed. It is possible for incorrect values to appear. Refer to information at About Latest Weather Observations and please check the disclaimer before using these data.